sensor_id;sensor_type;location;lat;lon;timestamp;P1;durP1;ratioP1;P2;durP2;ratioP2
21810;SDS011;11067;48.788;9.208;2022-09-01T00:00:21;24.40;;;17.48;;
21810;SDS011;11067;48.788;9.208;2022-09-01T00:02:52;24.55;;;18.42;;
21810;SDS011;11067;48.788;9.208;2022-09-01T00:05:19;22.30;;;17.48;;
21810;SDS011;11067;48.788;9.208;2022-09-01T00:07:44;27.17;;;18.90;;
21810;SDS011;11067;48.788;9.208;2022-09-01T00:10:12;26.58;;;18.92;;
21810;SDS011;11067;48.788;9.208;2022-09-01T00:12:37;26.02;;;19.00;;
21810;SDS011;11067;48.788;9.208;2022-09-01T00:15:04;27.47;;;18.50;;
21810;SDS011;11067;48.788;9.208;2022-09-01T00:17:30;23.25;;;18.17;;
21810;SDS011;11067;48.788;9.208;2022-09-01T00:19:57;23.75;;;18.48;;
21810;SDS011;11067;48.788;9.208;2022-09-01T00:22:23;25.17;;;18.90;;
21810;SDS011;11067;48.788;9.208;2022-09-01T00:24:49;27.10;;;18.07;;
21810;SDS011;11067;48.788;9.208;2022-09-01T00:27:14;25.90;;;17.80;;
21810;SDS011;11067;48.788;9.208;2022-09-01T00:29:40;24.13;;;17.80;;
21810;SDS011;11067;48.788;9.208;2022-09-01T00:32:05;22.97;;;17.30;;
21810;SDS011;11067;48.788;9.208;2022-09-01T00:34:31;24.33;;;17.52;;
21810;SDS011;11067;48.788;9.208;2022-09-01T00:36:56;22.93;;;17.27;;
21810;SDS011;11067;48.788;9.208;2022-09-01T00:39:22;28.67;;;18.10;;
21810;SDS011;11067;48.788;9.208;2022-09-01T00:41:47;27.33;;;18.55;;
21810;SDS011;11067;48.788;9.208;2022-09-01T00:44:15;23.77;;;17.02;;
21810;SDS011;11067;48.788;9.208;2022-09-01T00:46:47;23.23;;;18.05;;
21810;SDS011;11067;48.788;9.208;2022-09-01T00:49:15;23.33;;;16.98;;
21810;SDS011;11067;48.788;9.208;2022-09-01T00:51:48;26.35;;;18.35;;
21810;SDS011;11067;48.788;9.208;2022-09-01T00:54:19;24.53;;;17.47;;
21810;SDS011;11067;48.788;9.208;2022-09-01T00:56:47;23.15;;;17.40;;
21810;SDS011;11067;48.788;9.208;2022-09-01T00:59:14;25.20;;;17.05;;
21810;SDS011;11067;48.788;9.208;2022-09-01T01:01:41;22.52;;;17.02;;
21810;SDS011;11067;48.788;9.208;2022-09-01T01:04:08;24.60;;;16.52;;
21810;SDS011;11067;48.788;9.208;2022-09-01T01:06:39;24.63;;;16.63;;
21810;SDS011;11067;48.788;9.208;2022-09-01T01:09:10;24.70;;;17.80;;
21810;SDS011;11067;48.788;9.208;2022-09-01T01:11:36;23.52;;;17.67;;
21810;SDS011;11067;48.788;9.208;2022-09-01T01:14:04;23.57;;;17.30;;
21810;SDS011;11067;48.788;9.208;2022-09-01T01:16:40;26.23;;;19.02;;
21810;SDS011;11067;48.788;9.208;2022-09-01T01:22:15;26.33;;;18.75;;
21810;SDS011;11067;48.788;9.208;2022-09-01T01:25:08;22.67;;;17.73;;
21810;SDS011;11067;48.788;9.208;2022-09-01T01:27:36;25.92;;;18.02;;
21810;SDS011;11067;48.788;9.208;2022-09-01T01:30:05;25.27;;;18.10;;
21810;SDS011;11067;48.788;9.208;2022-09-01T01:32:35;27.03;;;18.60;;
21810;SDS011;11067;48.788;9.208;2022-09-01T01:35:01;23.73;;;18.20;;
21810;SDS011;11067;48.788;9.208;2022-09-01T01:37:29;24.10;;;18.30;;
21810;SDS011;11067;48.788;9.208;2022-09-01T01:39:59;23.00;;;18.05;;
21810;SDS011;11067;48.788;9.208;2022-09-01T01:42:25;25.60;;;18.90;;
21810;SDS011;11067;48.788;9.208;2022-09-01T01:44:52;25.83;;;18.20;;
21810;SDS011;11067;48.788;9.208;2022-09-01T01:47:18;26.67;;;18.67;;
21810;SDS011;11067;48.788;9.208;2022-09-01T01:49:44;23.87;;;18.17;;
21810;SDS011;11067;48.788;9.208;2022-09-01T01:52:11;25.63;;;18.50;;
21810;SDS011;11067;48.788;9.208;2022-09-01T01:54:40;23.57;;;17.07;;
21810;SDS011;11067;48.788;9.208;2022-09-01T01:57:06;26.27;;;17.05;;
21810;SDS011;11067;48.788;9.208;2022-09-01T01:59:32;23.52;;;18.35;;
21810;SDS011;11067;48.788;9.208;2022-09-01T02:01:58;22.37;;;16.87;;
21810;SDS011;11067;48.788;9.208;2022-09-01T02:04:27;23.30;;;17.23;;
21810;SDS011;11067;48.788;9.208;2022-09-01T02:06:57;22.38;;;16.27;;
21810;SDS011;11067;48.788;9.208;2022-09-01T02:09:23;23.07;;;17.40;;
21810;SDS011;11067;48.788;9.208;2022-09-01T02:11:49;23.07;;;17.53;;
21810;SDS011;11067;48.788;9.208;2022-09-01T02:14:18;22.40;;;17.08;;
21810;SDS011;11067;48.788;9.208;2022-09-01T02:16:45;24.75;;;17.67;;
21810;SDS011;11067;48.788;9.208;2022-09-01T02:19:11;23.37;;;17.57;;
21810;SDS011;11067;48.788;9.208;2022-09-01T02:21:36;22.90;;;17.47;;
21810;SDS011;11067;48.788;9.208;2022-09-01T02:24:03;26.50;;;18.13;;
21810;SDS011;11067;48.788;9.208;2022-09-01T02:26:36;23.50;;;16.80;;
21810;SDS011;11067;48.788;9.208;2022-09-01T02:29:06;21.27;;;17.10;;
21810;SDS011;11067;48.788;9.208;2022-09-01T02:31:42;21.50;;;16.50;;
21810;SDS011;11067;48.788;9.208;2022-09-01T02:34:08;24.80;;;17.45;;
21810;SDS011;11067;48.788;9.208;2022-09-01T02:36:35;23.75;;;17.92;;
21810;SDS011;11067;48.788;9.208;2022-09-01T02:39:12;26.58;;;18.30;;
21810;SDS011;11067;48.788;9.208;2022-09-01T02:41:39;24.50;;;19.08;;
21810;SDS011;11067;48.788;9.208;2022-09-01T02:44:05;24.43;;;18.03;;
21810;SDS011;11067;48.788;9.208;2022-09-01T02:46:35;25.63;;;18.65;;
21810;SDS011;11067;48.788;9.208;2022-09-01T02:49:12;25.73;;;18.33;;
21810;SDS011;11067;48.788;9.208;2022-09-01T02:51:42;24.92;;;18.88;;
21810;SDS011;11067;48.788;9.208;2022-09-01T02:54:09;26.35;;;19.17;;
21810;SDS011;11067;48.788;9.208;2022-09-01T02:56:41;28.75;;;19.13;;
21810;SDS011;11067;48.788;9.208;2022-09-01T02:59:12;24.77;;;17.98;;
21810;SDS011;11067;48.788;9.208;2022-09-01T03:01:42;26.90;;;18.95;;
21810;SDS011;11067;48.788;9.208;2022-09-01T03:04:11;27.35;;;19.13;;
21810;SDS011;11067;48.788;9.208;2022-09-01T03:06:38;26.30;;;19.13;;
21810;SDS011;11067;48.788;9.208;2022-09-01T03:09:08;25.75;;;18.83;;
21810;SDS011;11067;48.788;9.208;2022-09-01T03:11:39;27.20;;;18.73;;
21810;SDS011;11067;48.788;9.208;2022-09-01T03:14:05;25.25;;;17.25;;
21810;SDS011;11067;48.788;9.208;2022-09-01T03:16:32;25.38;;;17.95;;
21810;SDS011;11067;48.788;9.208;2022-09-01T03:18:58;25.97;;;18.23;;
21810;SDS011;11067;48.788;9.208;2022-09-01T03:21:27;23.13;;;17.83;;
21810;SDS011;11067;48.788;9.208;2022-09-01T03:23:53;22.37;;;17.50;;
21810;SDS011;11067;48.788;9.208;2022-09-01T03:26:19;24.73;;;18.37;;
21810;SDS011;11067;48.788;9.208;2022-09-01T03:28:47;30.40;;;19.30;;
21810;SDS011;11067;48.788;9.208;2022-09-01T03:31:13;26.65;;;19.02;;
21810;SDS011;11067;48.788;9.208;2022-09-01T03:33:39;29.00;;;19.65;;
21810;SDS011;11067;48.788;9.208;2022-09-01T03:36:06;25.48;;;18.73;;
21810;SDS011;11067;48.788;9.208;2022-09-01T03:38:32;29.67;;;20.23;;
21810;SDS011;11067;48.788;9.208;2022-09-01T03:40:59;26.63;;;19.20;;
21810;SDS011;11067;48.788;9.208;2022-09-01T03:43:27;26.57;;;19.47;;
21810;SDS011;11067;48.788;9.208;2022-09-01T03:45:55;27.33;;;20.85;;
21810;SDS011;11067;48.788;9.208;2022-09-01T03:48:24;29.27;;;21.43;;
21810;SDS011;11067;48.788;9.208;2022-09-01T03:50:53;28.13;;;20.17;;
21810;SDS011;11067;48.788;9.208;2022-09-01T03:53:22;30.88;;;20.63;;
21810;SDS011;11067;48.788;9.208;2022-09-01T03:55:49;29.40;;;21.50;;
21810;SDS011;11067;48.788;9.208;2022-09-01T03:58:17;31.03;;;21.63;;
21810;SDS011;11067;48.788;9.208;2022-09-01T04:00:45;27.77;;;20.95;;
21810;SDS011;11067;48.788;9.208;2022-09-01T04:03:14;30.75;;;21.40;;
21810;SDS011;11067;48.788;9.208;2022-09-01T04:05:45;26.87;;;21.03;;
21810;SDS011;11067;48.788;9.208;2022-09-01T04:08:11;31.65;;;21.42;;
21810;SDS011;11067;48.788;9.208;2022-09-01T04:10:47;30.73;;;22.17;;
21810;SDS011;11067;48.788;9.208;2022-09-01T04:13:16;29.83;;;21.48;;
21810;SDS011;11067;48.788;9.208;2022-09-01T04:15:43;26.77;;;20.57;;
21810;SDS011;11067;48.788;9.208;2022-09-01T04:18:09;24.30;;;18.67;;
21810;SDS011;11067;48.788;9.208;2022-09-01T04:20:44;24.30;;;18.10;;
21810;SDS011;11067;48.788;9.208;2022-09-01T04:23:31;25.25;;;18.15;;
21810;SDS011;11067;48.788;9.208;2022-09-01T04:28:34;27.65;;;19.27;;
21810;SDS011;11067;48.788;9.208;2022-09-01T04:31:03;31.93;;;19.53;;
21810;SDS011;11067;48.788;9.208;2022-09-01T04:33:33;25.25;;;18.02;;
21810;SDS011;11067;48.788;9.208;2022-09-01T04:36:12;27.50;;;18.20;;
21810;SDS011;11067;48.788;9.208;2022-09-01T04:38:43;25.70;;;17.37;;
21810;SDS011;11067;48.788;9.208;2022-09-01T04:41:11;25.10;;;18.25;;
21810;SDS011;11067;48.788;9.208;2022-09-01T04:43:41;30.57;;;19.93;;
21810;SDS011;11067;48.788;9.208;2022-09-01T04:46:09;27.95;;;18.58;;
21810;SDS011;11067;48.788;9.208;2022-09-01T04:48:38;30.00;;;19.08;;
21810;SDS011;11067;48.788;9.208;2022-09-01T04:51:06;26.05;;;18.38;;
21810;SDS011;11067;48.788;9.208;2022-09-01T04:53:34;24.80;;;18.23;;
21810;SDS011;11067;48.788;9.208;2022-09-01T04:56:04;25.05;;;18.33;;
21810;SDS011;11067;48.788;9.208;2022-09-01T04:58:31;24.50;;;18.08;;
21810;SDS011;11067;48.788;9.208;2022-09-01T05:00:58;25.30;;;17.45;;
21810;SDS011;11067;48.788;9.208;2022-09-01T05:03:24;23.67;;;16.67;;
21810;SDS011;11067;48.788;9.208;2022-09-01T05:05:50;22.75;;;16.80;;
21810;SDS011;11067;48.788;9.208;2022-09-01T05:08:18;23.70;;;16.67;;
21810;SDS011;11067;48.788;9.208;2022-09-01T05:10:48;23.38;;;17.08;;
21810;SDS011;11067;48.788;9.208;2022-09-01T05:13:16;21.27;;;16.10;;
21810;SDS011;11067;48.788;9.208;2022-09-01T05:15:44;23.45;;;16.33;;
21810;SDS011;11067;48.788;9.208;2022-09-01T05:18:14;20.63;;;15.52;;
21810;SDS011;11067;48.788;9.208;2022-09-01T05:20:47;21.00;;;15.73;;
21810;SDS011;11067;48.788;9.208;2022-09-01T05:23:13;21.25;;;14.85;;
21810;SDS011;11067;48.788;9.208;2022-09-01T05:25:43;20.88;;;14.82;;
21810;SDS011;11067;48.788;9.208;2022-09-01T05:28:12;21.02;;;15.25;;
21810;SDS011;11067;48.788;9.208;2022-09-01T05:30:38;21.48;;;14.93;;
21810;SDS011;11067;48.788;9.208;2022-09-01T05:33:05;19.80;;;14.87;;
21810;SDS011;11067;48.788;9.208;2022-09-01T05:35:41;20.48;;;14.75;;
21810;SDS011;11067;48.788;9.208;2022-09-01T05:38:09;21.52;;;14.80;;
21810;SDS011;11067;48.788;9.208;2022-09-01T05:40:39;21.08;;;15.25;;
21810;SDS011;11067;48.788;9.208;2022-09-01T05:43:06;21.25;;;16.10;;
21810;SDS011;11067;48.788;9.208;2022-09-01T05:45:36;21.60;;;15.10;;
21810;SDS011;11067;48.788;9.208;2022-09-01T05:48:06;19.43;;;15.40;;
21810;SDS011;11067;48.788;9.208;2022-09-01T05:50:33;21.38;;;15.85;;
21810;SDS011;11067;48.788;9.208;2022-09-01T05:52:59;19.00;;;14.63;;
21810;SDS011;11067;48.788;9.208;2022-09-01T05:55:26;19.23;;;15.17;;
21810;SDS011;11067;48.788;9.208;2022-09-01T05:57:52;20.57;;;14.63;;
21810;SDS011;11067;48.788;9.208;2022-09-01T06:00:17;21.00;;;15.13;;
21810;SDS011;11067;48.788;9.208;2022-09-01T06:02:44;20.20;;;14.63;;
21810;SDS011;11067;48.788;9.208;2022-09-01T06:05:09;20.20;;;15.27;;
21810;SDS011;11067;48.788;9.208;2022-09-01T06:07:35;17.65;;;13.82;;
21810;SDS011;11067;48.788;9.208;2022-09-01T06:10:04;20.52;;;14.02;;
21810;SDS011;11067;48.788;9.208;2022-09-01T06:12:30;17.80;;;13.30;;
21810;SDS011;11067;48.788;9.208;2022-09-01T06:14:57;20.15;;;14.07;;
21810;SDS011;11067;48.788;9.208;2022-09-01T06:17:24;19.42;;;14.45;;
21810;SDS011;11067;48.788;9.208;2022-09-01T06:19:53;18.90;;;14.77;;
21810;SDS011;11067;48.788;9.208;2022-09-01T06:22:20;22.58;;;14.68;;
21810;SDS011;11067;48.788;9.208;2022-09-01T06:24:47;20.93;;;14.67;;
21810;SDS011;11067;48.788;9.208;2022-09-01T06:27:15;19.92;;;14.93;;
21810;SDS011;11067;48.788;9.208;2022-09-01T06:29:42;20.27;;;14.45;;
21810;SDS011;11067;48.788;9.208;2022-09-01T06:32:09;21.98;;;14.75;;
21810;SDS011;11067;48.788;9.208;2022-09-01T06:34:40;20.87;;;14.67;;
21810;SDS011;11067;48.788;9.208;2022-09-01T06:37:08;18.73;;;13.70;;
21810;SDS011;11067;48.788;9.208;2022-09-01T06:39:35;19.73;;;14.23;;
21810;SDS011;11067;48.788;9.208;2022-09-01T06:42:02;16.93;;;12.93;;
21810;SDS011;11067;48.788;9.208;2022-09-01T06:44:28;21.38;;;13.82;;
21810;SDS011;11067;48.788;9.208;2022-09-01T06:46:55;17.88;;;13.98;;
21810;SDS011;11067;48.788;9.208;2022-09-01T06:49:21;19.63;;;13.60;;
21810;SDS011;11067;48.788;9.208;2022-09-01T06:51:56;16.42;;;12.98;;
21810;SDS011;11067;48.788;9.208;2022-09-01T06:54:26;16.65;;;13.07;;
21810;SDS011;11067;48.788;9.208;2022-09-01T06:56:58;17.88;;;13.05;;
21810;SDS011;11067;48.788;9.208;2022-09-01T06:59:26;17.35;;;12.80;;
21810;SDS011;11067;48.788;9.208;2022-09-01T07:01:55;18.38;;;12.80;;
21810;SDS011;11067;48.788;9.208;2022-09-01T07:04:25;15.77;;;12.82;;
21810;SDS011;11067;48.788;9.208;2022-09-01T07:06:53;20.77;;;13.13;;
21810;SDS011;11067;48.788;9.208;2022-09-01T07:09:19;16.23;;;13.00;;
21810;SDS011;11067;48.788;9.208;2022-09-01T07:11:46;16.67;;;12.75;;
21810;SDS011;11067;48.788;9.208;2022-09-01T07:14:13;17.33;;;13.07;;
21810;SDS011;11067;48.788;9.208;2022-09-01T07:16:41;16.98;;;12.77;;
21810;SDS011;11067;48.788;9.208;2022-09-01T07:19:09;17.95;;;12.63;;
21810;SDS011;11067;48.788;9.208;2022-09-01T07:21:40;16.52;;;12.18;;
21810;SDS011;11067;48.788;9.208;2022-09-01T07:24:07;14.95;;;11.70;;
21810;SDS011;11067;48.788;9.208;2022-09-01T07:26:35;17.52;;;13.60;;
21810;SDS011;11067;48.788;9.208;2022-09-01T07:29:03;17.13;;;12.85;;
21810;SDS011;11067;48.788;9.208;2022-09-01T07:31:32;15.23;;;10.83;;
21810;SDS011;11067;48.788;9.208;2022-09-01T07:34:06;18.20;;;12.03;;
21810;SDS011;11067;48.788;9.208;2022-09-01T07:36:34;14.95;;;11.23;;
21810;SDS011;11067;48.788;9.208;2022-09-01T07:39:02;15.07;;;11.90;;
21810;SDS011;11067;48.788;9.208;2022-09-01T07:41:29;15.10;;;11.77;;
21810;SDS011;11067;48.788;9.208;2022-09-01T07:43:56;15.93;;;12.13;;
21810;SDS011;11067;48.788;9.208;2022-09-01T07:46:23;14.98;;;12.07;;
21810;SDS011;11067;48.788;9.208;2022-09-01T07:48:51;15.13;;;11.77;;
21810;SDS011;11067;48.788;9.208;2022-09-01T07:51:19;17.20;;;11.90;;
21810;SDS011;11067;48.788;9.208;2022-09-01T07:53:46;16.77;;;11.25;;
21810;SDS011;11067;48.788;9.208;2022-09-01T07:56:13;19.37;;;13.77;;
21810;SDS011;11067;48.788;9.208;2022-09-01T07:58:39;14.13;;;10.30;;
21810;SDS011;11067;48.788;9.208;2022-09-01T08:01:09;11.32;;;7.95;;
21810;SDS011;11067;48.788;9.208;2022-09-01T08:03:37;10.37;;;8.33;;
21810;SDS011;11067;48.788;9.208;2022-09-01T08:06:05;11.35;;;8.57;;
21810;SDS011;11067;48.788;9.208;2022-09-01T08:08:36;13.30;;;8.10;;
21810;SDS011;11067;48.788;9.208;2022-09-01T08:11:04;10.05;;;7.80;;
21810;SDS011;11067;48.788;9.208;2022-09-01T08:13:30;11.40;;;8.00;;
21810;SDS011;11067;48.788;9.208;2022-09-01T08:15:57;10.65;;;8.18;;
21810;SDS011;11067;48.788;9.208;2022-09-01T08:18:23;12.03;;;9.07;;
21810;SDS011;11067;48.788;9.208;2022-09-01T08:20:48;14.35;;;8.38;;
21810;SDS011;11067;48.788;9.208;2022-09-01T08:23:15;10.57;;;8.13;;
21810;SDS011;11067;48.788;9.208;2022-09-01T08:25:43;11.85;;;8.20;;
21810;SDS011;11067;48.788;9.208;2022-09-01T08:28:10;10.20;;;8.27;;
21810;SDS011;11067;48.788;9.208;2022-09-01T08:30:37;9.93;;;8.27;;
21810;SDS011;11067;48.788;9.208;2022-09-01T08:33:05;10.48;;;7.60;;
21810;SDS011;11067;48.788;9.208;2022-09-01T08:35:31;12.75;;;7.70;;
21810;SDS011;11067;48.788;9.208;2022-09-01T08:37:57;11.45;;;7.60;;
21810;SDS011;11067;48.788;9.208;2022-09-01T08:40:23;9.57;;;7.37;;
21810;SDS011;11067;48.788;9.208;2022-09-01T08:45:53;9.10;;;7.10;;
21810;SDS011;11067;48.788;9.208;2022-09-01T08:48:24;8.35;;;6.70;;
21810;SDS011;11067;48.788;9.208;2022-09-01T08:51:13;8.85;;;6.90;;
21810;SDS011;11067;48.788;9.208;2022-09-01T08:53:48;8.18;;;6.25;;
21810;SDS011;11067;48.788;9.208;2022-09-01T08:56:30;8.43;;;6.77;;
21810;SDS011;11067;48.788;9.208;2022-09-01T08:59:01;9.30;;;6.60;;
21810;SDS011;11067;48.788;9.208;2022-09-01T09:01:35;7.90;;;6.57;;
21810;SDS011;11067;48.788;9.208;2022-09-01T09:06:45;7.63;;;6.28;;
21810;SDS011;11067;48.788;9.208;2022-09-01T09:09:24;8.60;;;6.80;;
21810;SDS011;11067;48.788;9.208;2022-09-01T09:14:50;9.73;;;7.70;;
21810;SDS011;11067;48.788;9.208;2022-09-01T09:17:29;10.47;;;7.73;;
21810;SDS011;11067;48.788;9.208;2022-09-01T09:20:01;8.02;;;6.65;;
21810;SDS011;11067;48.788;9.208;2022-09-01T09:22:28;9.18;;;6.60;;
21810;SDS011;11067;48.788;9.208;2022-09-01T09:25:09;8.90;;;6.57;;
21810;SDS011;11067;48.788;9.208;2022-09-01T09:27:40;7.47;;;6.25;;
21810;SDS011;11067;48.788;9.208;2022-09-01T09:30:13;6.97;;;6.28;;
21810;SDS011;11067;48.788;9.208;2022-09-01T09:37:55;8.27;;;6.57;;
21810;SDS011;11067;48.788;9.208;2022-09-01T09:40:54;9.07;;;5.90;;
21810;SDS011;11067;48.788;9.208;2022-09-01T09:43:25;7.65;;;6.45;;
21810;SDS011;11067;48.788;9.208;2022-09-01T09:48:48;8.73;;;5.95;;
21810;SDS011;11067;48.788;9.208;2022-09-01T09:51:34;6.63;;;5.70;;
21810;SDS011;11067;48.788;9.208;2022-09-01T09:54:16;9.20;;;5.90;;
21810;SDS011;11067;48.788;9.208;2022-09-01T09:59:46;7.60;;;5.93;;
21810;SDS011;11067;48.788;9.208;2022-09-01T10:07:42;6.90;;;5.45;;
21810;SDS011;11067;48.788;9.208;2022-09-01T10:13:14;8.03;;;5.70;;
21810;SDS011;11067;48.788;9.208;2022-09-01T10:15:48;6.73;;;5.60;;
21810;SDS011;11067;48.788;9.208;2022-09-01T10:18:23;6.33;;;5.40;;
21810;SDS011;11067;48.788;9.208;2022-09-01T10:20:57;6.22;;;4.97;;
21810;SDS011;11067;48.788;9.208;2022-09-01T10:23:29;5.70;;;4.57;;
21810;SDS011;11067;48.788;9.208;2022-09-01T10:26:21;6.10;;;4.85;;
21810;SDS011;11067;48.788;9.208;2022-09-01T10:31:51;4.80;;;4.30;;
21810;SDS011;11067;48.788;9.208;2022-09-01T10:34:18;4.85;;;4.28;;
21810;SDS011;11067;48.788;9.208;2022-09-01T10:36:46;5.03;;;4.43;;
21810;SDS011;11067;48.788;9.208;2022-09-01T10:39:13;5.07;;;4.55;;
21810;SDS011;11067;48.788;9.208;2022-09-01T10:44:17;4.35;;;3.75;;
21810;SDS011;11067;48.788;9.208;2022-09-01T10:46:54;6.43;;;3.90;;
21810;SDS011;11067;48.788;9.208;2022-09-01T10:51:52;5.40;;;4.13;;
21810;SDS011;11067;48.788;9.208;2022-09-01T10:57:07;5.10;;;3.90;;
21810;SDS011;11067;48.788;9.208;2022-09-01T10:59:50;4.60;;;3.60;;
21810;SDS011;11067;48.788;9.208;2022-09-01T11:02:18;4.55;;;3.83;;
21810;SDS011;11067;48.788;9.208;2022-09-01T11:09:43;4.72;;;4.18;;
21810;SDS011;11067;48.788;9.208;2022-09-01T11:12:28;7.05;;;4.22;;
21810;SDS011;11067;48.788;9.208;2022-09-01T11:17:38;5.87;;;4.30;;
21810;SDS011;11067;48.788;9.208;2022-09-01T11:23:03;4.88;;;4.05;;
21810;SDS011;11067;48.788;9.208;2022-09-01T11:30:42;5.30;;;4.00;;
21810;SDS011;11067;48.788;9.208;2022-09-01T11:35:44;4.55;;;3.80;;
21810;SDS011;11067;48.788;9.208;2022-09-01T11:38:11;4.80;;;3.50;;
21810;SDS011;11067;48.788;9.208;2022-09-01T11:40:41;5.30;;;3.60;;
21810;SDS011;11067;48.788;9.208;2022-09-01T11:43:09;4.20;;;3.70;;
21810;SDS011;11067;48.788;9.208;2022-09-01T11:45:42;5.65;;;3.50;;
21810;SDS011;11067;48.788;9.208;2022-09-01T11:48:19;4.43;;;3.42;;
21810;SDS011;11067;48.788;9.208;2022-09-01T11:50:45;4.90;;;3.50;;
21810;SDS011;11067;48.788;9.208;2022-09-01T11:53:25;4.25;;;3.70;;
21810;SDS011;11067;48.788;9.208;2022-09-01T11:55:52;4.40;;;3.50;;
21810;SDS011;11067;48.788;9.208;2022-09-01T12:00:53;4.55;;;3.80;;
21810;SDS011;11067;48.788;9.208;2022-09-01T12:03:24;3.80;;;3.50;;
21810;SDS011;11067;48.788;9.208;2022-09-01T12:05:53;5.13;;;3.42;;
21810;SDS011;11067;48.788;9.208;2022-09-01T12:08:23;4.53;;;3.80;;
21810;SDS011;11067;48.788;9.208;2022-09-01T12:10:59;5.45;;;3.92;;
21810;SDS011;11067;48.788;9.208;2022-09-01T12:13:28;6.55;;;3.95;;
21810;SDS011;11067;48.788;9.208;2022-09-01T12:15:57;8.77;;;3.50;;
21810;SDS011;11067;48.788;9.208;2022-09-01T12:18:27;6.20;;;3.75;;
21810;SDS011;11067;48.788;9.208;2022-09-01T12:20:56;4.72;;;3.53;;
21810;SDS011;11067;48.788;9.208;2022-09-01T12:23:34;4.00;;;3.60;;
21810;SDS011;11067;48.788;9.208;2022-09-01T12:26:14;6.03;;;3.70;;
21810;SDS011;11067;48.788;9.208;2022-09-01T12:28:44;5.82;;;3.80;;
21810;SDS011;11067;48.788;9.208;2022-09-01T12:31:15;4.53;;;3.40;;
21810;SDS011;11067;48.788;9.208;2022-09-01T12:33:46;4.50;;;3.53;;
21810;SDS011;11067;48.788;9.208;2022-09-01T12:38:52;4.20;;;3.07;;
21810;SDS011;11067;48.788;9.208;2022-09-01T12:41:26;4.68;;;3.40;;
21810;SDS011;11067;48.788;9.208;2022-09-01T12:46:57;4.00;;;3.60;;
21810;SDS011;11067;48.788;9.208;2022-09-01T12:49:45;4.43;;;3.42;;
21810;SDS011;11067;48.788;9.208;2022-09-01T12:55:07;3.47;;;3.17;;
21810;SDS011;11067;48.788;9.208;2022-09-01T12:57:39;3.33;;;2.95;;
21810;SDS011;11067;48.788;9.208;2022-09-01T13:00:14;3.93;;;3.23;;
21810;SDS011;11067;48.788;9.208;2022-09-01T13:02:50;3.95;;;3.38;;
21810;SDS011;11067;48.788;9.208;2022-09-01T13:05:29;3.35;;;3.05;;
21810;SDS011;11067;48.788;9.208;2022-09-01T13:08:04;4.13;;;3.60;;
21810;SDS011;11067;48.788;9.208;2022-09-01T13:10:33;4.43;;;3.40;;
21810;SDS011;11067;48.788;9.208;2022-09-01T13:13:02;3.80;;;3.50;;
21810;SDS011;11067;48.788;9.208;2022-09-01T13:15:28;3.70;;;3.40;;
21810;SDS011;11067;48.788;9.208;2022-09-01T13:17:55;6.95;;;3.35;;
21810;SDS011;11067;48.788;9.208;2022-09-01T13:20:20;5.00;;;3.80;;
21810;SDS011;11067;48.788;9.208;2022-09-01T13:22:46;4.18;;;3.70;;
21810;SDS011;11067;48.788;9.208;2022-09-01T13:25:13;7.03;;;3.77;;
21810;SDS011;11067;48.788;9.208;2022-09-01T13:27:42;6.05;;;3.60;;
21810;SDS011;11067;48.788;9.208;2022-09-01T13:30:11;4.63;;;3.42;;
21810;SDS011;11067;48.788;9.208;2022-09-01T13:32:41;3.67;;;3.27;;
21810;SDS011;11067;48.788;9.208;2022-09-01T13:35:09;4.03;;;3.67;;
21810;SDS011;11067;48.788;9.208;2022-09-01T13:37:39;4.00;;;3.60;;
21810;SDS011;11067;48.788;9.208;2022-09-01T13:40:05;3.97;;;3.30;;
21810;SDS011;11067;48.788;9.208;2022-09-01T13:42:32;4.87;;;3.67;;
21810;SDS011;11067;48.788;9.208;2022-09-01T13:44:58;3.95;;;3.60;;
21810;SDS011;11067;48.788;9.208;2022-09-01T13:47:25;4.95;;;3.70;;
21810;SDS011;11067;48.788;9.208;2022-09-01T13:49:51;4.70;;;3.83;;
21810;SDS011;11067;48.788;9.208;2022-09-01T13:52:16;4.73;;;3.13;;
21810;SDS011;11067;48.788;9.208;2022-09-01T13:54:43;3.70;;;3.23;;
21810;SDS011;11067;48.788;9.208;2022-09-01T13:57:09;3.67;;;3.08;;
21810;SDS011;11067;48.788;9.208;2022-09-01T13:59:35;4.72;;;3.30;;
21810;SDS011;11067;48.788;9.208;2022-09-01T14:02:01;3.38;;;3.08;;
21810;SDS011;11067;48.788;9.208;2022-09-01T14:04:28;4.15;;;3.50;;
21810;SDS011;11067;48.788;9.208;2022-09-01T14:06:53;10.70;;;4.10;;
21810;SDS011;11067;48.788;9.208;2022-09-01T14:09:19;4.50;;;3.50;;
21810;SDS011;11067;48.788;9.208;2022-09-01T14:11:45;3.80;;;3.13;;
21810;SDS011;11067;48.788;9.208;2022-09-01T14:14:10;4.78;;;3.50;;
21810;SDS011;11067;48.788;9.208;2022-09-01T14:16:36;4.70;;;3.50;;
21810;SDS011;11067;48.788;9.208;2022-09-01T14:19:02;4.50;;;3.93;;
21810;SDS011;11067;48.788;9.208;2022-09-01T14:21:28;4.07;;;3.67;;
21810;SDS011;11067;48.788;9.208;2022-09-01T14:23:54;5.60;;;3.70;;
21810;SDS011;11067;48.788;9.208;2022-09-01T14:26:19;3.67;;;3.30;;
21810;SDS011;11067;48.788;9.208;2022-09-01T14:28:45;3.67;;;3.37;;
21810;SDS011;11067;48.788;9.208;2022-09-01T14:31:12;6.27;;;3.37;;
21810;SDS011;11067;48.788;9.208;2022-09-01T14:33:40;3.72;;;3.05;;
21810;SDS011;11067;48.788;9.208;2022-09-01T14:36:06;3.38;;;2.90;;
21810;SDS011;11067;48.788;9.208;2022-09-01T14:38:39;3.57;;;3.27;;
21810;SDS011;11067;48.788;9.208;2022-09-01T14:41:05;3.50;;;3.00;;
21810;SDS011;11067;48.788;9.208;2022-09-01T14:43:30;3.67;;;3.00;;
21810;SDS011;11067;48.788;9.208;2022-09-01T14:46:03;4.03;;;2.80;;
21810;SDS011;11067;48.788;9.208;2022-09-01T14:48:30;3.10;;;2.80;;
21810;SDS011;11067;48.788;9.208;2022-09-01T14:50:57;3.13;;;2.80;;
21810;SDS011;11067;48.788;9.208;2022-09-01T14:53:23;3.30;;;3.00;;
21810;SDS011;11067;48.788;9.208;2022-09-01T14:55:49;3.15;;;2.80;;
21810;SDS011;11067;48.788;9.208;2022-09-01T14:58:14;3.17;;;2.70;;
21810;SDS011;11067;48.788;9.208;2022-09-01T15:00:41;2.75;;;2.55;;
21810;SDS011;11067;48.788;9.208;2022-09-01T15:03:08;2.90;;;2.60;;
21810;SDS011;11067;48.788;9.208;2022-09-01T15:05:34;2.83;;;2.63;;
21810;SDS011;11067;48.788;9.208;2022-09-01T15:08:00;3.60;;;2.90;;
21810;SDS011;11067;48.788;9.208;2022-09-01T15:10:26;4.07;;;3.17;;
21810;SDS011;11067;48.788;9.208;2022-09-01T15:12:52;3.50;;;3.20;;
21810;SDS011;11067;48.788;9.208;2022-09-01T15:15:19;4.10;;;3.10;;
21810;SDS011;11067;48.788;9.208;2022-09-01T15:17:45;3.23;;;2.90;;
21810;SDS011;11067;48.788;9.208;2022-09-01T15:20:10;5.00;;;3.38;;
21810;SDS011;11067;48.788;9.208;2022-09-01T15:22:54;4.63;;;3.22;;
21810;SDS011;11067;48.788;9.208;2022-09-01T15:25:20;3.27;;;2.83;;
21810;SDS011;11067;48.788;9.208;2022-09-01T15:27:46;3.13;;;2.85;;
21810;SDS011;11067;48.788;9.208;2022-09-01T15:30:12;3.53;;;3.22;;
21810;SDS011;11067;48.788;9.208;2022-09-01T15:32:41;5.00;;;4.38;;
21810;SDS011;11067;48.788;9.208;2022-09-01T15:35:08;3.58;;;3.17;;
21810;SDS011;11067;48.788;9.208;2022-09-01T15:37:34;3.42;;;3.10;;
21810;SDS011;11067;48.788;9.208;2022-09-01T15:40:00;5.07;;;3.30;;
21810;SDS011;11067;48.788;9.208;2022-09-01T15:42:25;3.50;;;3.20;;
21810;SDS011;11067;48.788;9.208;2022-09-01T15:44:51;3.40;;;3.03;;
21810;SDS011;11067;48.788;9.208;2022-09-01T15:47:17;3.60;;;3.10;;
21810;SDS011;11067;48.788;9.208;2022-09-01T15:49:42;3.80;;;2.77;;
21810;SDS011;11067;48.788;9.208;2022-09-01T15:52:08;8.97;;;3.40;;
21810;SDS011;11067;48.788;9.208;2022-09-01T15:54:36;3.17;;;2.88;;
21810;SDS011;11067;48.788;9.208;2022-09-01T15:57:03;5.37;;;2.80;;